createdAt,value
2023-12-04T00:02:04.136Z,10.88
2023-12-04T00:04:31.610Z,11.52
2023-12-04T00:06:58.738Z,10.38
2023-12-04T00:09:26.355Z,12.75
2023-12-04T00:11:53.753Z,11.77
2023-12-04T00:14:22.002Z,10.98
2023-12-04T00:16:48.984Z,10.98
2023-12-04T00:19:18.649Z,12.02
2023-12-04T00:21:45.850Z,10.70
2023-12-04T00:24:15.566Z,11.23
2023-12-04T00:26:42.547Z,10.60
2023-12-04T00:29:09.539Z,11.07
2023-12-04T00:31:36.445Z,10.52
2023-12-04T00:34:03.648Z,10.65
2023-12-04T00:36:30.866Z,10.23
2023-12-04T00:38:57.928Z,10.70
2023-12-04T00:41:24.930Z,11.43
2023-12-04T00:43:52.273Z,12.35
2023-12-04T00:46:20.718Z,11.65
2023-12-04T00:48:47.949Z,10.50
2023-12-04T00:51:15.080Z,11.63
2023-12-04T00:53:42.078Z,11.68
2023-12-04T00:56:09.800Z,12.30
2023-12-04T00:58:36.843Z,11.57
2023-12-04T01:01:03.887Z,11.48
2023-12-04T01:03:34.294Z,11.35
2023-12-04T01:06:01.536Z,12.23
2023-12-04T01:08:29.836Z,10.98
2023-12-04T01:10:57.875Z,12.13
2023-12-04T01:13:24.946Z,11.30
2023-12-04T01:15:52.228Z,10.30
2023-12-04T01:18:19.629Z,12.95
2023-12-04T01:20:46.727Z,12.73
2023-12-04T01:23:13.638Z,12.13
2023-12-04T01:25:42.868Z,12.35
2023-12-04T01:28:09.910Z,12.95
2023-12-04T01:30:36.908Z,14.07
2023-12-04T01:33:03.904Z,11.85
2023-12-04T01:35:30.933Z,11.10
2023-12-04T01:37:57.873Z,11.93
2023-12-04T01:40:25.965Z,12.18
2023-12-04T01:42:53.068Z,12.05
2023-12-04T01:45:20.492Z,12.18
2023-12-04T01:47:48.458Z,12.63
2023-12-04T01:50:16.211Z,11.98
2023-12-04T01:52:44.579Z,12.45
2023-12-04T01:55:11.989Z,11.05
2023-12-04T01:57:39.080Z,12.50
2023-12-04T02:00:13.461Z,12.93
2023-12-04T02:02:41.936Z,12.07
2023-12-04T02:05:09.397Z,12.88
2023-12-04T02:07:39.086Z,12.93
2023-12-04T02:10:07.614Z,12.88
2023-12-04T02:12:36.120Z,12.57
2023-12-04T02:15:04.493Z,13.20
2023-12-04T02:17:32.460Z,12.90
2023-12-04T02:20:01.075Z,12.98
2023-12-04T02:22:28.112Z,13.50
2023-12-04T02:24:59.904Z,13.23
2023-12-04T02:27:29.445Z,12.77
2023-12-04T02:30:02.724Z,13.70
2023-12-04T02:32:31.526Z,13.52
2023-12-04T02:35:00.226Z,13.60
2023-12-04T02:37:27.379Z,13.23
2023-12-04T02:39:56.423Z,13.32
2023-12-04T02:42:26.076Z,13.18
2023-12-04T02:44:53.301Z,13.55
2023-12-04T02:47:20.383Z,13.27
2023-12-04T02:49:50.234Z,12.82
2023-12-04T02:52:17.192Z,12.35
2023-12-04T02:54:45.166Z,13.70
2023-12-04T02:57:12.324Z,12.57
2023-12-04T02:59:39.403Z,13.02
2023-12-04T03:02:07.805Z,13.90
2023-12-04T03:04:35.623Z,12.73
2023-12-04T03:07:03.195Z,12.30
2023-12-04T03:09:47.771Z,12.50
2023-12-04T03:12:16.931Z,12.48
2023-12-04T03:14:43.848Z,13.48
2023-12-04T03:17:10.848Z,13.45
2023-12-04T03:19:38.214Z,13.18
2023-12-04T03:22:05.282Z,12.77
2023-12-04T03:24:32.376Z,12.27
2023-12-04T03:26:59.449Z,12.65
2023-12-04T03:29:26.358Z,11.57
2023-12-04T03:31:53.265Z,12.25
2023-12-04T03:34:20.270Z,12.63
2023-12-04T03:36:47.268Z,12.05
2023-12-04T03:39:14.217Z,12.15
2023-12-04T03:41:41.242Z,11.10
2023-12-04T03:44:08.170Z,11.23
2023-12-04T03:46:35.155Z,11.15
2023-12-04T03:49:02.359Z,12.32
2023-12-04T03:51:29.384Z,11.40
2023-12-04T03:53:56.311Z,11.13
2023-12-04T03:56:23.372Z,12.35
2023-12-04T03:58:50.299Z,12.75
2023-12-04T04:01:17.338Z,13.45
2023-12-04T04:03:46.361Z,12.65
2023-12-04T04:06:13.446Z,11.75
2023-12-04T04:08:40.358Z,12.95
2023-12-04T04:11:07.561Z,13.13
2023-12-04T04:13:34.474Z,13.95
2023-12-04T04:16:01.474Z,12.23
2023-12-04T04:18:28.635Z,11.00
2023-12-04T04:20:56.663Z,12.70
2023-12-04T04:23:23.640Z,11.63
2023-12-04T04:25:50.687Z,12.75
2023-12-04T04:28:17.613Z,12.63
2023-12-04T04:30:44.567Z,12.43
2023-12-04T04:33:12.646Z,11.90
2023-12-04T04:35:39.668Z,12.20
2023-12-04T04:38:06.668Z,12.43
2023-12-04T04:40:33.652Z,12.63
2023-12-04T04:43:00.665Z,12.70
2023-12-04T04:45:30.481Z,12.65
2023-12-04T04:47:57.810Z,12.50
2023-12-04T04:50:24.730Z,12.80
2023-12-04T04:52:52.336Z,12.98
2023-12-04T04:55:46.107Z,12.90
2023-12-04T04:58:06.308Z,13.57
2023-12-04T05:00:33.649Z,13.50
2023-12-04T05:03:00.660Z,12.15
2023-12-04T05:05:27.596Z,13.52
2023-12-04T05:07:55.889Z,12.18
2023-12-04T05:10:23.906Z,12.23
2023-12-04T05:12:51.229Z,12.90
2023-12-04T05:15:18.197Z,13.30
2023-12-04T05:17:45.705Z,13.38
2023-12-04T05:20:13.182Z,14.13
2023-12-04T05:22:40.969Z,12.63
2023-12-04T05:25:08.226Z,13.60
2023-12-04T05:27:35.315Z,13.27
2023-12-04T05:30:02.396Z,12.65
2023-12-04T05:32:29.534Z,13.00
2023-12-04T05:34:56.672Z,13.40
2023-12-04T05:37:23.669Z,13.90
2023-12-04T05:39:50.656Z,13.63
2023-12-04T05:42:17.630Z,13.63
2023-12-04T05:44:44.770Z,14.18
2023-12-04T05:47:13.237Z,14.20
2023-12-04T05:49:40.254Z,14.98
2023-12-04T05:52:07.493Z,13.23
2023-12-04T05:54:34.443Z,13.02
2023-12-04T05:57:04.090Z,15.10
2023-12-04T05:59:31.193Z,13.10
2023-12-04T06:02:00.890Z,13.43
2023-12-04T06:04:27.890Z,15.23
2023-12-04T06:06:56.060Z,14.45
2023-12-04T06:09:23.004Z,14.77
2023-12-04T06:11:50.025Z,13.50
2023-12-04T06:14:18.043Z,13.68
2023-12-04T06:16:45.013Z,12.68
2023-12-04T06:19:12.059Z,14.25
2023-12-04T06:21:39.127Z,13.10
2023-12-04T06:24:09.967Z,13.70
2023-12-04T06:26:40.518Z,13.98
2023-12-04T06:29:07.548Z,14.57
2023-12-04T06:31:34.577Z,15.15
2023-12-04T06:34:01.822Z,14.20
2023-12-04T06:36:31.880Z,14.63
2023-12-04T06:39:00.335Z,14.73
2023-12-04T06:41:29.830Z,14.93
2023-12-04T06:43:56.889Z,11.93
2023-12-04T06:46:25.100Z,13.82
2023-12-04T06:48:54.973Z,13.60
2023-12-04T06:51:22.037Z,14.82
2023-12-04T06:53:48.989Z,14.82
2023-12-04T06:56:19.289Z,11.15
2023-12-04T06:58:47.818Z,15.52
2023-12-04T07:01:14.791Z,17.95
2023-12-04T07:03:41.956Z,29.92
2023-12-04T07:06:09.061Z,16.23
2023-12-04T07:08:38.989Z,19.25
2023-12-04T07:11:07.368Z,18.30
2023-12-04T07:13:34.333Z,16.02
2023-12-04T07:16:01.872Z,15.50
2023-12-04T07:18:28.981Z,14.05
2023-12-04T07:20:55.966Z,14.68
2023-12-04T07:23:25.734Z,15.13
2023-12-04T07:28:21.633Z,16.83
2023-12-04T07:30:48.639Z,15.00
2023-12-04T07:33:15.744Z,13.70
2023-12-04T07:35:42.890Z,13.05
2023-12-04T07:38:09.920Z,13.60
2023-12-04T07:40:37.100Z,14.45
2023-12-04T07:43:04.126Z,14.85
2023-12-04T07:45:33.721Z,14.63
2023-12-04T07:48:00.770Z,20.30
2023-12-04T07:50:27.767Z,18.40
2023-12-04T07:52:54.898Z,17.20
2023-12-04T07:55:23.090Z,16.40
2023-12-04T07:57:53.903Z,17.23
2023-12-04T08:00:21.118Z,18.77
2023-12-04T08:02:48.106Z,18.02
2023-12-04T08:05:15.145Z,20.92
2023-12-04T08:07:42.180Z,18.27
2023-12-04T08:10:10.040Z,19.38
2023-12-04T08:12:37.086Z,20.00
2023-12-04T08:15:05.397Z,20.55
2023-12-04T08:17:32.461Z,19.58
2023-12-04T08:19:59.847Z,19.90
2023-12-04T08:22:28.141Z,19.73
2023-12-04T08:24:55.414Z,23.30
2023-12-04T08:27:22.429Z,24.38
2023-12-04T08:29:49.433Z,24.90
2023-12-04T08:32:17.007Z,21.52
2023-12-04T08:34:43.947Z,21.65
2023-12-04T08:37:11.400Z,30.27
2023-12-04T08:39:39.661Z,24.70
2023-12-04T08:42:09.767Z,28.65
2023-12-04T08:44:42.288Z,21.63
2023-12-04T08:47:09.286Z,20.15
2023-12-04T08:49:43.142Z,21.27
2023-12-04T08:52:14.032Z,23.25
2023-12-04T08:54:42.768Z,23.50
2023-12-04T08:57:10.376Z,26.15
2023-12-04T08:59:37.441Z,22.60
2023-12-04T09:02:05.323Z,22.23
2023-12-04T09:04:33.224Z,34.03
2023-12-04T09:09:30.610Z,23.63
2023-12-04T09:11:58.088Z,26.77
2023-12-04T09:14:25.179Z,25.77
2023-12-04T09:16:52.197Z,27.40
2023-12-04T09:19:19.432Z,26.40
2023-12-04T09:21:46.996Z,44.20
2023-12-04T09:24:15.469Z,29.63
2023-12-04T09:26:42.548Z,22.38
2023-12-04T09:29:12.551Z,26.02
2023-12-04T09:31:39.534Z,25.35
2023-12-04T09:34:10.561Z,22.05
2023-12-04T09:36:37.635Z,29.83
2023-12-04T09:39:05.375Z,18.88
2023-12-04T09:41:32.405Z,17.50
2023-12-04T09:43:59.460Z,15.50
2023-12-04T09:46:26.553Z,17.40
2023-12-04T09:48:53.776Z,22.17
2023-12-04T09:51:21.913Z,14.80
2023-12-04T09:53:49.695Z,16.55
2023-12-04T09:56:17.534Z,23.00
2023-12-04T09:58:45.988Z,16.42
2023-12-04T10:01:14.486Z,14.82
2023-12-04T10:03:42.760Z,25.55
2023-12-04T10:06:10.163Z,14.75
2023-12-04T10:08:37.191Z,16.25
2023-12-04T10:11:04.370Z,20.65
2023-12-04T10:13:56.577Z,23.52
2023-12-04T10:16:34.638Z,19.10
2023-12-04T10:19:17.732Z,18.15
2023-12-04T10:21:48.892Z,27.45
2023-12-04T10:24:36.670Z,15.35
2023-12-04T10:27:06.537Z,17.13
2023-12-04T10:29:49.832Z,34.03
2023-12-04T10:32:23.521Z,84.78
2023-12-04T10:34:50.865Z,21.80
2023-12-04T10:37:18.395Z,24.52
2023-12-04T10:39:49.402Z,33.65
2023-12-04T10:42:37.063Z,31.00
2023-12-04T10:45:07.586Z,24.20
2023-12-04T10:47:35.938Z,24.23
2023-12-04T10:50:03.984Z,31.55
2023-12-04T10:52:33.077Z,22.08
2023-12-04T10:55:01.450Z,54.78
2023-12-04T10:57:34.632Z,26.50
2023-12-04T11:00:06.459Z,83.82
2023-12-04T11:02:35.161Z,57.22
2023-12-04T11:05:15.876Z,82.50
2023-12-04T11:08:13.037Z,26.07
2023-12-04T11:10:33.087Z,44.42
2023-12-04T11:13:16.286Z,27.40
2023-12-04T11:15:49.124Z,36.90
2023-12-04T11:18:16.659Z,19.42
2023-12-04T11:20:49.647Z,16.13
2023-12-04T11:23:17.182Z,25.17
2023-12-04T11:25:47.263Z,31.17
2023-12-04T11:28:14.633Z,43.47
2023-12-04T11:30:43.332Z,31.20
2023-12-04T11:33:10.473Z,34.08
2023-12-04T11:35:37.676Z,23.38
2023-12-04T11:38:06.119Z,25.75
2023-12-04T11:40:33.176Z,22.52
2023-12-04T11:43:00.281Z,22.88
2023-12-04T11:45:27.483Z,20.90
2023-12-04T11:47:58.248Z,21.55
2023-12-04T11:50:25.861Z,26.40
2023-12-04T11:52:53.360Z,19.42
2023-12-04T11:55:23.711Z,19.98
2023-12-04T11:57:55.706Z,22.75
2023-12-04T12:00:23.994Z,24.65
2023-12-04T12:03:15.664Z,27.58
2023-12-04T12:05:42.689Z,26.80
2023-12-04T12:08:12.470Z,34.50
2023-12-04T12:10:39.498Z,38.90
2023-12-04T12:13:06.563Z,32.78
2023-12-04T12:15:34.186Z,37.30
2023-12-04T12:18:01.373Z,27.38
2023-12-04T12:20:28.575Z,38.30
2023-12-04T12:22:55.634Z,29.65
2023-12-04T12:25:24.034Z,39.70
2023-12-04T12:27:53.246Z,31.70
2023-12-04T12:30:20.498Z,28.13
2023-12-04T12:32:47.553Z,28.48
2023-12-04T12:35:14.725Z,24.92
2023-12-04T12:37:41.751Z,30.83
2023-12-04T12:40:11.820Z,35.38
2023-12-04T12:42:45.398Z,28.95
2023-12-04T12:45:13.342Z,25.80
2023-12-04T12:47:44.448Z,26.83
2023-12-04T12:50:12.292Z,26.55
2023-12-04T12:52:39.646Z,25.48
2023-12-04T12:55:06.756Z,26.73
2023-12-04T12:57:33.945Z,25.52
2023-12-04T13:00:00.952Z,29.00
2023-12-04T13:02:28.075Z,25.10
2023-12-04T13:04:57.204Z,23.27
2023-12-04T13:07:24.486Z,24.48
2023-12-04T13:09:54.437Z,26.05
2023-12-04T13:12:21.730Z,24.20
2023-12-04T13:14:48.731Z,19.52
2023-12-04T13:17:15.671Z,21.05
2023-12-04T13:19:43.055Z,21.52
2023-12-04T13:22:11.198Z,24.42
2023-12-04T13:24:38.257Z,24.02
2023-12-04T13:27:05.611Z,22.98
2023-12-04T13:29:32.647Z,25.08
2023-12-04T13:32:00.552Z,21.63
2023-12-04T13:34:27.791Z,21.75
2023-12-04T13:36:54.841Z,25.35
2023-12-04T13:39:28.961Z,23.90
2023-12-04T13:42:14.560Z,24.13
2023-12-04T13:44:42.545Z,21.98
2023-12-04T13:47:09.789Z,22.05
2023-12-04T13:49:36.770Z,20.65
2023-12-04T13:52:08.493Z,19.25
2023-12-04T13:54:50.343Z,18.40
2023-12-04T13:57:29.331Z,16.92
2023-12-04T13:59:58.999Z,16.90
2023-12-04T14:02:26.554Z,19.30
2023-12-04T14:04:53.931Z,19.33
2023-12-04T14:07:22.638Z,28.20
2023-12-04T14:09:49.944Z,24.13
2023-12-04T14:12:17.521Z,24.73
2023-12-04T14:14:44.647Z,19.80
2023-12-04T14:17:13.161Z,18.70
2023-12-04T14:19:41.013Z,24.50
2023-12-04T14:22:10.417Z,24.40
2023-12-04T14:24:38.327Z,27.35
2023-12-04T14:27:06.509Z,25.30
2023-12-04T14:29:33.463Z,25.27
2023-12-04T14:32:00.446Z,22.42
2023-12-04T14:34:30.026Z,34.47
2023-12-04T14:36:59.669Z,27.83
2023-12-04T14:39:26.851Z,32.28
2023-12-04T14:41:54.643Z,52.80
2023-12-04T14:44:21.658Z,28.65
2023-12-04T14:46:49.229Z,26.58
2023-12-04T14:49:17.017Z,23.27
2023-12-04T14:51:48.677Z,24.10
2023-12-04T14:54:38.717Z,23.88
2023-12-04T14:57:21.215Z,25.65
2023-12-04T15:00:13.959Z,24.95
2023-12-04T15:02:50.188Z,25.67
2023-12-04T15:05:17.463Z,26.05
2023-12-04T15:07:53.502Z,25.92
2023-12-04T15:10:26.443Z,25.73
2023-12-04T15:13:02.370Z,25.33
2023-12-04T15:15:47.480Z,26.05
2023-12-04T15:18:33.083Z,28.02
2023-12-04T15:21:02.738Z,27.45
2023-12-04T15:23:29.771Z,26.48
2023-12-04T15:25:57.083Z,28.73
2023-12-04T15:28:24.393Z,27.95
2023-12-04T15:30:51.442Z,27.58
2023-12-04T15:33:18.742Z,31.45
2023-12-04T15:35:45.801Z,53.75
2023-12-04T15:38:12.870Z,39.13
2023-12-04T15:40:40.462Z,31.63
2023-12-04T15:43:07.654Z,30.27
2023-12-04T15:45:37.816Z,25.88
2023-12-04T15:48:05.046Z,26.70
2023-12-04T15:50:32.608Z,30.17
2023-12-04T15:53:00.917Z,27.77
2023-12-04T15:55:28.026Z,36.50
2023-12-04T15:57:58.628Z,24.00
2023-12-04T16:00:26.070Z,29.40
2023-12-04T16:02:53.158Z,25.88
2023-12-04T16:05:20.409Z,24.20
2023-12-04T16:07:47.690Z,25.63
2023-12-04T16:10:16.880Z,26.23
2023-12-04T16:12:44.113Z,26.73
2023-12-04T16:15:11.370Z,25.13
2023-12-04T16:17:39.246Z,25.67
2023-12-04T16:20:11.806Z,26.33
2023-12-04T16:22:41.555Z,26.27
2023-12-04T16:25:08.829Z,26.92
2023-12-04T16:27:35.829Z,27.20
2023-12-04T16:30:03.015Z,23.70
2023-12-04T16:32:30.027Z,27.50
2023-12-04T16:34:58.514Z,28.35
2023-12-04T16:37:28.071Z,26.65
2023-12-04T16:39:55.574Z,22.80
2023-12-04T16:42:23.163Z,22.52
2023-12-04T16:44:50.214Z,23.27
2023-12-04T16:47:17.243Z,21.73
2023-12-04T16:49:44.510Z,20.92
2023-12-04T16:52:16.474Z,23.52
2023-12-04T16:54:43.840Z,24.95
2023-12-04T16:57:11.447Z,28.65
2023-12-04T16:59:39.025Z,38.83
2023-12-04T17:02:07.215Z,29.25
2023-12-04T17:04:35.304Z,28.38
2023-12-04T17:07:02.532Z,29.15
2023-12-04T17:09:30.129Z,32.97
2023-12-04T17:11:57.214Z,31.73
2023-12-04T17:14:24.260Z,49.03
2023-12-04T17:16:51.431Z,44.58
2023-12-04T17:19:18.560Z,30.33
2023-12-04T17:21:45.648Z,41.20
2023-12-04T17:24:12.639Z,38.92
2023-12-04T17:26:39.638Z,32.80
2023-12-04T17:29:06.632Z,32.40
2023-12-04T17:31:33.580Z,40.40
2023-12-04T17:34:00.778Z,38.08
2023-12-04T17:36:28.918Z,41.40
2023-12-04T17:38:56.153Z,38.55
2023-12-04T17:41:23.295Z,30.92
2023-12-04T17:43:50.335Z,37.55
2023-12-04T17:46:17.334Z,36.80
2023-12-04T17:48:46.421Z,38.72
2023-12-04T17:51:17.276Z,41.50
2023-12-04T17:53:44.700Z,43.08
2023-12-04T17:56:11.889Z,94.22
2023-12-04T17:58:38.807Z,96.68
2023-12-04T18:01:07.065Z,119.53
2023-12-04T18:03:36.891Z,107.47
2023-12-04T18:06:04.714Z,112.68
2023-12-04T18:08:32.737Z,123.60
2023-12-04T18:10:59.684Z,119.28
2023-12-04T18:13:26.858Z,115.05
2023-12-04T18:15:53.886Z,112.10
2023-12-04T18:18:21.843Z,114.90
2023-12-04T18:20:49.150Z,116.32
2023-12-04T18:23:16.124Z,127.82
2023-12-04T18:25:43.677Z,122.97
2023-12-04T18:28:11.506Z,119.82
2023-12-04T18:30:38.640Z,119.43
2023-12-04T18:33:06.730Z,119.43
2023-12-04T18:35:33.986Z,118.57
2023-12-04T18:38:11.024Z,116.03
2023-12-04T18:40:38.161Z,118.85
2023-12-04T18:43:05.423Z,108.97
2023-12-04T18:45:35.000Z,101.03
2023-12-04T18:48:05.345Z,97.68
2023-12-04T18:50:33.139Z,98.67
2023-12-04T18:53:00.584Z,89.78
2023-12-04T18:55:27.885Z,99.80
2023-12-04T18:57:54.995Z,101.32
2023-12-04T19:00:26.308Z,78.22
2023-12-04T19:02:53.842Z,73.40
2023-12-04T19:05:21.454Z,73.80
2023-12-04T19:07:48.649Z,71.85
2023-12-04T19:10:15.689Z,71.45
2023-12-04T19:12:42.720Z,76.95
2023-12-04T19:15:13.349Z,88.30
2023-12-04T19:17:40.521Z,87.38
2023-12-04T19:20:10.603Z,86.97
2023-12-04T19:22:37.683Z,90.82
2023-12-04T19:25:04.728Z,104.72
2023-12-04T19:27:31.719Z,109.25
2023-12-04T19:29:58.783Z,104.90
2023-12-04T19:32:25.966Z,106.78
2023-12-04T19:34:53.082Z,111.78
2023-12-04T19:37:20.136Z,116.60
2023-12-04T19:39:47.359Z,113.80
2023-12-04T19:42:14.459Z,106.63
2023-12-04T19:44:44.968Z,101.03
2023-12-04T19:47:11.969Z,103.80
2023-12-04T19:49:44.934Z,98.07
2023-12-04T19:52:12.154Z,103.50
2023-12-04T19:54:42.291Z,98.82
2023-12-04T19:57:09.428Z,100.30
2023-12-04T19:59:37.021Z,106.90
2023-12-04T20:02:05.088Z,102.43
2023-12-04T20:04:32.810Z,107.63
2023-12-04T20:06:59.910Z,112.05
2023-12-04T20:09:26.949Z,114.90
2023-12-04T20:11:53.969Z,116.55
2023-12-04T20:14:20.966Z,116.15
2023-12-04T20:16:48.356Z,115.18
2023-12-04T20:19:15.463Z,110.93
2023-12-04T20:21:43.736Z,106.97
2023-12-04T20:24:10.882Z,102.50
2023-12-04T20:26:37.940Z,102.75
2023-12-04T20:29:04.854Z,101.65
2023-12-04T20:31:31.879Z,105.70
2023-12-04T20:33:59.142Z,114.05
2023-12-04T20:36:26.344Z,117.40
2023-12-04T20:38:53.329Z,127.88
2023-12-04T20:41:23.226Z,136.82
2023-12-04T20:43:50.642Z,139.00
2023-12-04T20:46:17.669Z,134.82
2023-12-04T20:48:46.066Z,134.57
2023-12-04T20:51:14.643Z,129.50
2023-12-04T20:53:41.773Z,120.68
2023-12-04T20:56:09.144Z,117.70
2023-12-04T20:58:36.174Z,114.00
2023-12-04T21:01:04.204Z,113.55
2023-12-04T21:03:31.398Z,130.15
2023-12-04T21:05:58.492Z,140.10
2023-12-04T21:08:25.531Z,143.10
2023-12-04T21:10:52.713Z,138.93
2023-12-04T21:13:19.642Z,124.75
2023-12-04T21:15:48.172Z,125.07
2023-12-04T21:18:16.143Z,121.40
2023-12-04T21:20:44.169Z,110.93
2023-12-04T21:23:11.317Z,105.28
2023-12-04T21:25:38.636Z,109.65
2023-12-04T21:28:07.316Z,108.28
2023-12-04T21:30:34.667Z,102.03
2023-12-04T21:33:01.776Z,103.32
2023-12-04T21:35:28.806Z,123.50
2023-12-04T21:37:57.600Z,115.07
2023-12-04T21:40:24.690Z,108.47
2023-12-04T21:42:51.644Z,103.95
2023-12-04T21:45:22.388Z,107.88
2023-12-04T21:47:49.778Z,115.20
2023-12-04T21:50:17.101Z,127.18
2023-12-04T21:52:44.235Z,112.25
2023-12-04T21:55:13.438Z,107.72
2023-12-04T21:57:40.623Z,115.30
2023-12-04T22:00:08.639Z,121.20
2023-12-04T22:02:35.706Z,118.43
2023-12-04T22:05:02.903Z,132.93
2023-12-04T22:07:30.192Z,123.22
2023-12-04T22:09:57.732Z,125.20
2023-12-04T22:12:25.339Z,125.10
2023-12-04T22:14:52.385Z,116.45
2023-12-04T22:17:20.544Z,112.85
2023-12-04T22:19:47.609Z,115.82
2023-12-04T22:22:14.688Z,110.80
2023-12-04T22:24:41.886Z,117.85
2023-12-04T22:27:08.877Z,122.90
2023-12-04T22:29:36.030Z,137.25
2023-12-04T22:32:03.114Z,137.18
2023-12-04T22:34:30.197Z,135.65
2023-12-04T22:36:57.459Z,138.27
2023-12-04T22:39:24.839Z,126.05
2023-12-04T22:41:51.879Z,105.93
2023-12-04T22:44:18.852Z,94.93
2023-12-04T22:46:45.815Z,86.20
2023-12-04T22:49:13.233Z,71.28
2023-12-04T22:51:40.467Z,67.88
2023-12-04T22:54:07.553Z,67.82
2023-12-04T22:56:34.669Z,64.05
2023-12-04T22:59:01.698Z,62.63
2023-12-04T23:01:28.752Z,71.15
2023-12-04T23:03:56.396Z,82.65
2023-12-04T23:06:24.191Z,89.90
2023-12-04T23:08:51.296Z,97.72
2023-12-04T23:11:18.268Z,82.97
2023-12-04T23:13:45.611Z,87.47
2023-12-04T23:16:15.349Z,92.93
2023-12-04T23:18:42.980Z,90.85
2023-12-04T23:21:10.097Z,91.38
2023-12-04T23:23:40.285Z,97.22
2023-12-04T23:26:07.831Z,94.55
2023-12-04T23:28:34.886Z,83.40
2023-12-04T23:31:02.210Z,91.07
2023-12-04T23:33:29.300Z,94.78
2023-12-04T23:35:56.420Z,92.60
2023-12-04T23:38:23.509Z,93.53
2023-12-04T23:40:50.460Z,84.50
2023-12-04T23:43:17.355Z,81.57
2023-12-04T23:45:52.926Z,84.65
2023-12-04T23:48:23.155Z,88.45
2023-12-04T23:50:50.305Z,82.93
2023-12-04T23:53:17.288Z,89.97
2023-12-04T23:55:44.259Z,86.90
2023-12-04T23:58:11.732Z,89.43
